createdAt,value
2022-11-19T00:23:21.325Z,97847.30
2022-11-19T00:25:54.664Z,97844.00
2022-11-19T00:28:28.610Z,97847.91
2022-11-19T00:31:08.302Z,97852.30
2022-11-19T00:33:41.944Z,97853.66
2022-11-19T00:36:16.544Z,97863.85
2022-11-19T00:38:49.449Z,97867.51
2022-11-19T00:41:21.327Z,97872.80
2022-11-19T00:43:53.999Z,97866.64
2022-11-19T00:46:33.821Z,97865.48
2022-11-19T00:49:09.713Z,97871.36
2022-11-19T00:51:42.877Z,97869.85
2022-11-19T00:54:14.928Z,97865.55
2022-11-19T00:56:49.347Z,97870.13
2022-11-19T00:59:21.487Z,97870.11
2022-11-19T01:01:54.597Z,97864.85
2022-11-19T01:04:28.334Z,97876.13
2022-11-19T01:07:01.139Z,97876.04
2022-11-19T01:09:33.893Z,97876.08
2022-11-19T01:12:08.287Z,97877.79
2022-11-19T01:14:41.659Z,97880.48
2022-11-19T01:17:13.945Z,97881.70
2022-11-19T01:19:46.049Z,97884.71
2022-11-19T01:22:18.284Z,97891.45
2022-11-19T01:24:50.170Z,97891.97
2022-11-19T01:27:22.085Z,97894.60
2022-11-19T01:29:54.295Z,97893.40
2022-11-19T01:32:26.088Z,97901.42
2022-11-19T01:34:58.000Z,97901.41
2022-11-19T01:37:31.148Z,97900.65
2022-11-19T01:40:02.881Z,97906.04
2022-11-19T01:42:51.692Z,97903.77
2022-11-19T01:45:30.825Z,97903.39
2022-11-19T01:48:06.858Z,97903.74
2022-11-19T01:50:45.403Z,97911.78
2022-11-19T01:53:21.089Z,97918.78
2022-11-19T01:55:53.428Z,97912.73
2022-11-19T01:58:27.086Z,97909.50
2022-11-19T02:01:05.002Z,97907.32
2022-11-19T02:03:41.636Z,97907.42
2022-11-19T02:06:14.691Z,97899.58
2022-11-19T02:08:50.584Z,97901.73
2022-11-19T02:11:54.087Z,97907.56
2022-11-19T02:14:36.849Z,97918.85
2022-11-19T02:17:18.020Z,97922.95
2022-11-19T02:20:38.703Z,97919.12
2022-11-19T02:23:46.124Z,97924.09
2022-11-19T02:26:43.480Z,97914.98
2022-11-19T02:29:26.493Z,97919.41
2022-11-19T02:32:02.984Z,97913.10
2022-11-19T02:34:39.750Z,97923.58
2022-11-19T02:37:16.661Z,97931.36
2022-11-19T02:39:54.161Z,97938.58
2022-11-19T02:42:29.760Z,97950.16
2022-11-19T02:45:04.960Z,97956.23
2022-11-19T02:47:41.470Z,97955.52
2022-11-19T02:50:15.180Z,97955.33
2022-11-19T02:52:48.362Z,97954.39
2022-11-19T02:55:22.822Z,97962.30
2022-11-19T02:58:03.013Z,97961.65
2022-11-19T03:01:01.238Z,97961.20
2022-11-19T03:03:51.340Z,97964.84
2022-11-19T03:06:26.522Z,97958.37
2022-11-19T03:08:58.524Z,97959.40
2022-11-19T03:11:31.747Z,97958.54
2022-11-19T03:14:35.169Z,97954.77
2022-11-19T03:17:12.675Z,97956.23
2022-11-19T03:19:48.569Z,97970.42
2022-11-19T03:22:22.935Z,97962.52
2022-11-19T03:24:59.681Z,97969.33
2022-11-19T03:27:34.452Z,97984.27
2022-11-19T03:30:08.485Z,97984.11
2022-11-19T03:32:44.726Z,97979.88
2022-11-19T03:35:24.406Z,97983.42
2022-11-19T03:38:03.011Z,97989.87
2022-11-19T03:40:36.488Z,97987.51
2022-11-19T03:43:10.846Z,97989.27
2022-11-19T03:45:46.260Z,97993.64
2022-11-19T03:48:19.696Z,97997.73
2022-11-19T03:50:55.605Z,97997.55
2022-11-19T03:53:28.693Z,98002.05
2022-11-19T03:56:04.211Z,98004.09
2022-11-19T03:58:42.988Z,98006.03
2022-11-19T04:01:15.492Z,98008.44
2022-11-19T04:04:09.713Z,98007.73
2022-11-19T04:06:41.805Z,98009.63
2022-11-19T04:09:13.794Z,98009.24
2022-11-19T04:14:20.359Z,98014.16
2022-11-19T04:16:53.515Z,98013.65
2022-11-19T04:19:26.380Z,98018.52
2022-11-19T04:22:00.176Z,98023.69
2022-11-19T04:24:33.348Z,98025.39
2022-11-19T04:27:06.037Z,98025.98
2022-11-19T04:29:39.567Z,98025.52
2022-11-19T04:32:12.812Z,98026.38
2022-11-19T04:34:45.747Z,98039.52
2022-11-19T04:37:18.684Z,98043.02
2022-11-19T04:39:53.054Z,98050.65
2022-11-19T04:42:25.063Z,98051.63
2022-11-19T04:44:57.809Z,98046.61
2022-11-19T04:47:31.459Z,98040.35
2022-11-19T04:50:04.088Z,98045.73
2022-11-19T04:52:41.643Z,98043.91
2022-11-19T04:55:14.461Z,98054.27
2022-11-19T04:57:46.517Z,98057.08
2022-11-19T05:00:20.573Z,98058.04
2022-11-19T05:02:55.580Z,98058.31
2022-11-19T05:05:29.793Z,98062.02
2022-11-19T05:08:02.026Z,98069.26
2022-11-19T05:10:36.378Z,98070.02
2022-11-19T05:13:09.244Z,98071.11
2022-11-19T05:15:41.980Z,98070.94
2022-11-19T05:18:15.034Z,98073.95
2022-11-19T05:20:49.741Z,98074.67
2022-11-19T05:23:22.808Z,98085.38
2022-11-19T05:25:55.487Z,98088.58
2022-11-19T05:28:38.636Z,98082.42
2022-11-19T05:31:13.170Z,98083.10
2022-11-19T05:33:46.094Z,98087.06
2022-11-19T05:36:18.019Z,98096.94
2022-11-19T05:38:51.468Z,98104.27
2022-11-19T05:41:27.173Z,98110.45
2022-11-19T05:44:01.706Z,98112.82
2022-11-19T05:46:36.071Z,98124.09
2022-11-19T05:49:10.081Z,98125.36
2022-11-19T05:51:43.079Z,98123.02
2022-11-19T05:54:16.497Z,98129.64
2022-11-19T05:56:48.736Z,98131.72
2022-11-19T05:59:22.223Z,98134.00
2022-11-19T06:01:56.054Z,98134.86
2022-11-19T06:04:28.995Z,98134.13
2022-11-19T06:07:04.448Z,98139.67
2022-11-19T06:09:40.447Z,98140.53
2022-11-19T06:12:12.335Z,98144.92
2022-11-19T06:14:45.615Z,98149.30
2022-11-19T06:17:18.933Z,98150.59
2022-11-19T06:19:51.448Z,98156.97
2022-11-19T06:22:25.742Z,98162.55
2022-11-19T06:24:57.927Z,98170.21
2022-11-19T06:27:30.452Z,98175.84
2022-11-19T06:30:02.577Z,98182.30
2022-11-19T06:32:35.091Z,98190.31
2022-11-19T06:35:09.372Z,98196.96
2022-11-19T06:37:41.698Z,98200.38
2022-11-19T06:40:17.326Z,98202.52
2022-11-19T06:42:51.287Z,98200.61
2022-11-19T06:45:23.763Z,98196.07
2022-11-19T06:47:56.169Z,98196.81
2022-11-19T06:50:28.762Z,98202.90
2022-11-19T06:53:02.432Z,98204.86
2022-11-19T06:55:34.451Z,98205.98
2022-11-19T06:58:08.434Z,98210.02
2022-11-19T07:00:41.486Z,98215.23
2022-11-19T07:03:14.090Z,98227.39
2022-11-19T07:05:46.833Z,98228.07
2022-11-19T07:08:20.109Z,98221.48
2022-11-19T07:10:52.188Z,98221.19
2022-11-19T07:13:25.296Z,98221.38
2022-11-19T07:15:58.211Z,98223.77
2022-11-19T07:18:31.319Z,98224.94
2022-11-19T07:21:03.122Z,98233.15
2022-11-19T07:23:40.400Z,98233.50
2022-11-19T07:26:12.231Z,98240.50
2022-11-19T07:28:44.978Z,98237.94
2022-11-19T07:31:17.751Z,98243.10
2022-11-19T07:33:51.939Z,98245.48
2022-11-19T07:36:25.053Z,98246.16
2022-11-19T07:38:58.615Z,98246.95
2022-11-19T07:41:51.895Z,98244.09
2022-11-19T07:44:24.935Z,98243.32
2022-11-19T07:46:57.758Z,98233.83
2022-11-19T07:49:34.100Z,98228.79
2022-11-19T07:52:08.204Z,98229.16
2022-11-19T07:54:40.040Z,98234.27
2022-11-19T07:57:13.868Z,98234.54
2022-11-19T07:59:45.815Z,98237.66
2022-11-19T08:02:18.948Z,98243.00
2022-11-19T08:04:52.146Z,98242.45
2022-11-19T08:07:26.875Z,98248.56
2022-11-19T08:09:59.464Z,98250.42
2022-11-19T08:12:34.229Z,98254.98
2022-11-19T08:15:06.928Z,98251.27
2022-11-19T08:17:57.380Z,98251.86
2022-11-19T08:20:30.487Z,98258.67
2022-11-19T08:23:05.602Z,98258.10
2022-11-19T08:25:39.657Z,98259.80
2022-11-19T08:28:12.601Z,98260.24
2022-11-19T08:30:46.344Z,98254.86
2022-11-19T08:33:20.361Z,98256.73
2022-11-19T08:35:57.479Z,98259.66
2022-11-19T08:38:35.782Z,98260.95
2022-11-19T08:41:29.852Z,98261.05
2022-11-19T08:44:04.794Z,98260.10
2022-11-19T08:46:38.290Z,98261.81
2022-11-19T08:49:14.065Z,98263.52
2022-11-19T08:51:47.597Z,98262.86
2022-11-19T08:54:20.086Z,98262.98
2022-11-19T08:56:59.248Z,98264.95
2022-11-19T08:59:33.155Z,98265.52
2022-11-19T09:02:05.568Z,98269.27
2022-11-19T09:04:38.704Z,98274.64
2022-11-19T09:07:12.077Z,98277.23
2022-11-19T09:09:43.990Z,98279.34
2022-11-19T09:12:17.139Z,98281.90
2022-11-19T09:14:51.139Z,98281.97
2022-11-19T09:17:23.809Z,98282.30
2022-11-19T09:19:58.196Z,98295.45
2022-11-19T09:22:32.390Z,98296.41
2022-11-19T09:25:06.590Z,98297.70
2022-11-19T09:27:40.535Z,98293.60
2022-11-19T09:30:16.358Z,98296.30
2022-11-19T09:32:50.060Z,98297.05
2022-11-19T09:35:22.137Z,98294.92
2022-11-19T09:37:54.698Z,98297.61
2022-11-19T09:40:27.428Z,98295.77
2022-11-19T09:43:12.708Z,98294.27
2022-11-19T09:45:59.160Z,98294.09
2022-11-19T09:48:35.618Z,98294.77
2022-11-19T09:51:12.805Z,98290.91
2022-11-19T09:53:52.441Z,98290.25
2022-11-19T09:56:28.885Z,98295.16
2022-11-19T09:59:03.684Z,98292.88
2022-11-19T10:01:38.383Z,98295.00
2022-11-19T10:04:15.091Z,98290.75
2022-11-19T10:06:55.255Z,98287.60
2022-11-19T10:09:47.012Z,98287.92
2022-11-19T10:12:28.860Z,98289.39
2022-11-19T10:15:19.863Z,98291.03
2022-11-19T10:18:01.284Z,98289.20
2022-11-19T10:20:54.244Z,98287.91
2022-11-19T10:23:35.836Z,98293.48
2022-11-19T10:26:13.392Z,98291.65
2022-11-19T10:28:50.142Z,98289.17
2022-11-19T10:31:28.211Z,98289.20
2022-11-19T10:34:06.269Z,98287.48
2022-11-19T10:36:44.459Z,98291.77
2022-11-19T10:39:25.091Z,98290.98
2022-11-19T10:42:02.865Z,98288.83
2022-11-19T10:44:45.993Z,98287.14
2022-11-19T10:47:21.441Z,98281.09
2022-11-19T10:49:57.638Z,98279.56
2022-11-19T10:52:36.243Z,98286.83
2022-11-19T10:55:19.188Z,98287.98
2022-11-19T10:57:54.497Z,98288.04
2022-11-19T11:00:26.882Z,98282.73
2022-11-19T11:03:03.933Z,98283.27
2022-11-19T11:05:58.410Z,98281.57
2022-11-19T11:08:33.144Z,98280.62
2022-11-19T11:11:08.712Z,98280.56
2022-11-19T11:14:01.284Z,98278.66
2022-11-19T11:16:47.594Z,98284.08
2022-11-19T11:19:23.146Z,98282.05
2022-11-19T11:21:57.271Z,98279.73
2022-11-19T11:24:36.823Z,98278.22
2022-11-19T11:27:33.595Z,98280.11
2022-11-19T11:30:20.078Z,98275.92
2022-11-19T11:32:52.202Z,98276.02
2022-11-19T11:35:37.795Z,98274.16
2022-11-19T11:38:11.746Z,98274.38
2022-11-19T11:41:20.729Z,98271.46
2022-11-19T11:44:02.979Z,98277.04
2022-11-19T11:46:45.307Z,98281.17
2022-11-19T11:49:26.633Z,98282.77
2022-11-19T11:52:16.760Z,98283.48
2022-11-19T11:55:00.007Z,98283.33
2022-11-19T11:57:36.698Z,98284.23
2022-11-19T12:00:36.491Z,98284.63
2022-11-19T12:03:13.055Z,98279.38
2022-11-19T12:05:52.124Z,98283.27
2022-11-19T12:08:38.691Z,98280.80
2022-11-19T12:11:16.750Z,98288.20
2022-11-19T12:14:00.172Z,98290.96
2022-11-19T12:16:42.936Z,98285.41
2022-11-19T12:19:24.925Z,98286.85
2022-11-19T12:22:07.961Z,98287.39
2022-11-19T12:24:55.918Z,98290.04
2022-11-19T12:27:33.998Z,98296.20
2022-11-19T12:30:10.576Z,98291.19
2022-11-19T12:33:00.861Z,98289.54
2022-11-19T12:35:43.091Z,98294.34
2022-11-19T12:38:31.338Z,98293.07
2022-11-19T12:41:14.645Z,98295.39
2022-11-19T12:43:57.049Z,98295.09
2022-11-19T12:46:47.619Z,98304.41
2022-11-19T12:49:36.306Z,98305.88
2022-11-19T12:52:26.583Z,98301.09
2022-11-19T12:55:05.536Z,98304.39
2022-11-19T12:57:45.216Z,98300.05
2022-11-19T13:00:20.000Z,98300.91
2022-11-19T13:02:58.602Z,98298.64
2022-11-19T13:05:40.032Z,98295.54
2022-11-19T13:08:18.003Z,98296.90
2022-11-19T13:10:52.276Z,98299.63
2022-11-19T13:13:28.852Z,98305.51
2022-11-19T13:16:06.530Z,98309.50
2022-11-19T13:18:41.220Z,98305.39
2022-11-19T13:21:22.388Z,98313.88
2022-11-19T13:23:55.849Z,98313.31
2022-11-19T13:26:30.975Z,98305.20
2022-11-19T13:29:12.557Z,98305.49
2022-11-19T13:31:47.942Z,98305.34
2022-11-19T13:34:23.561Z,98316.46
2022-11-19T13:37:04.962Z,98330.04
2022-11-19T13:39:41.012Z,98329.13
2022-11-19T13:42:31.542Z,98322.89
2022-11-19T13:45:05.757Z,98322.35
2022-11-19T13:47:46.482Z,98326.23
2022-11-19T13:50:21.671Z,98319.20
2022-11-19T13:52:57.696Z,98319.33
2022-11-19T13:55:39.537Z,98317.45
2022-11-19T13:58:17.374Z,98321.71
2022-11-19T14:01:13.314Z,98310.34
2022-11-19T14:03:56.680Z,98312.91
2022-11-19T14:06:47.852Z,98323.84
2022-11-19T14:09:30.700Z,98326.05
2022-11-19T14:12:28.514Z,98324.55
2022-11-19T14:15:34.781Z,98324.16
2022-11-19T14:18:37.626Z,98326.93
2022-11-19T14:22:16.048Z,98326.23
2022-11-19T14:25:18.175Z,98326.08
2022-11-19T14:27:54.890Z,98329.11
2022-11-19T14:31:08.219Z,98331.83
2022-11-19T14:34:01.511Z,98332.70
2022-11-19T14:36:45.332Z,98332.79
2022-11-19T14:39:25.394Z,98335.53
2022-11-19T14:42:15.944Z,98336.65
2022-11-19T14:44:50.795Z,98337.73
2022-11-19T14:47:36.274Z,98337.94
2022-11-19T14:50:11.652Z,98340.66
2022-11-19T14:52:55.095Z,98341.75
2022-11-19T14:55:28.645Z,98342.06
2022-11-19T14:58:04.520Z,98340.48
2022-11-19T15:00:40.615Z,98337.17
2022-11-19T15:03:17.146Z,98336.63
2022-11-19T15:05:51.085Z,98339.23
2022-11-19T15:08:50.990Z,98341.61
2022-11-19T15:11:25.357Z,98344.23
2022-11-19T15:14:28.318Z,98346.59
2022-11-19T15:17:04.489Z,98352.66
2022-11-19T15:19:41.378Z,98355.73
2022-11-19T15:22:36.354Z,98352.39
2022-11-19T15:25:21.898Z,98354.34
2022-11-19T15:28:10.506Z,98352.45
2022-11-19T15:31:03.651Z,98357.01
2022-11-19T15:33:55.819Z,98356.23
2022-11-19T15:36:35.268Z,98366.77
2022-11-19T15:39:13.927Z,98366.95
2022-11-19T15:42:00.850Z,98362.88
2022-11-19T15:44:42.168Z,98363.98
2022-11-19T15:47:18.636Z,98373.39
2022-11-19T15:49:53.286Z,98378.20
2022-11-19T15:52:31.072Z,98375.73
2022-11-19T15:55:22.535Z,98371.55
2022-11-19T15:57:56.494Z,98374.91
2022-11-19T16:00:30.605Z,98370.98
2022-11-19T16:03:04.665Z,98376.60
2022-11-19T16:05:37.365Z,98382.69
2022-11-19T16:08:12.256Z,98381.83
2022-11-19T16:10:47.369Z,98376.08
2022-11-19T16:13:49.034Z,98373.35
2022-11-19T16:16:47.452Z,98376.59
2022-11-19T16:19:20.613Z,98371.05
2022-11-19T16:21:55.074Z,98368.18
2022-11-19T16:24:46.772Z,98369.89
2022-11-19T16:27:25.651Z,98373.30
2022-11-19T16:29:57.860Z,98375.02
2022-11-19T16:32:31.745Z,98380.55
2022-11-19T16:35:21.638Z,98373.17
2022-11-19T16:37:54.492Z,98368.65
2022-11-19T16:40:28.868Z,98375.15
2022-11-19T16:43:03.954Z,98378.06
2022-11-19T16:45:40.760Z,98377.52
2022-11-19T16:48:56.055Z,98371.66
2022-11-19T16:51:37.100Z,98364.69
2022-11-19T16:54:11.731Z,98359.94
2022-11-19T16:56:47.971Z,98358.63
2022-11-19T16:59:24.915Z,98361.39
2022-11-19T17:02:00.120Z,98364.91
2022-11-19T17:04:35.352Z,98361.70
2022-11-19T17:07:07.725Z,98354.58
2022-11-19T17:09:44.722Z,98345.16
2022-11-19T17:12:27.400Z,98343.36
2022-11-19T17:15:00.891Z,98343.67
2022-11-19T17:17:40.929Z,98340.53
2022-11-19T17:21:00.262Z,98340.96
2022-11-19T17:23:37.548Z,98346.51
2022-11-19T17:26:12.472Z,98348.48
2022-11-19T17:28:46.753Z,98347.91
2022-11-19T17:31:27.004Z,98344.80
2022-11-19T17:34:12.478Z,98351.96
2022-11-19T17:36:48.073Z,98347.58
2022-11-19T17:39:25.539Z,98348.91
2022-11-19T17:42:20.636Z,98349.20
2022-11-19T17:44:54.197Z,98346.79
2022-11-19T17:47:27.285Z,98355.59
2022-11-19T17:49:59.393Z,98356.88
2022-11-19T17:52:32.922Z,98355.59
2022-11-19T17:55:15.718Z,98356.62
2022-11-19T17:57:48.467Z,98356.67
2022-11-19T18:00:22.266Z,98353.30
2022-11-19T18:03:02.790Z,98352.54
2022-11-19T18:05:37.689Z,98354.09
2022-11-19T18:08:10.182Z,98356.66
2022-11-19T18:10:44.278Z,98354.45
2022-11-19T18:13:18.425Z,98351.65
2022-11-19T18:15:50.342Z,98353.55
2022-11-19T18:18:24.117Z,98358.89
2022-11-19T18:21:01.693Z,98355.89
2022-11-19T18:23:34.869Z,98365.38
2022-11-19T18:26:09.554Z,98373.23
2022-11-19T18:28:46.291Z,98366.52
2022-11-19T18:31:22.700Z,98370.23
2022-11-19T18:33:56.336Z,98374.11
2022-11-19T18:36:29.862Z,98376.40
2022-11-19T18:39:03.361Z,98377.70
2022-11-19T18:41:41.174Z,98375.23
2022-11-19T18:44:35.831Z,98375.71
2022-11-19T18:47:10.295Z,98370.91
2022-11-19T18:49:43.591Z,98368.29
2022-11-19T18:52:19.222Z,98367.00
2022-11-19T18:54:51.720Z,98367.64
2022-11-19T18:57:25.809Z,98365.90
2022-11-19T18:59:58.546Z,98365.77
2022-11-19T19:02:30.811Z,98367.42
2022-11-19T19:05:04.598Z,98372.78
2022-11-19T19:07:38.793Z,98375.38
2022-11-19T19:10:14.138Z,98371.96
2022-11-19T19:12:46.216Z,98373.72
2022-11-19T19:15:18.992Z,98371.16
2022-11-19T19:17:52.259Z,98369.61
2022-11-19T19:20:26.295Z,98365.47
2022-11-19T19:23:01.246Z,98366.34
2022-11-19T19:25:35.796Z,98368.20
2022-11-19T19:28:08.599Z,98366.64
2022-11-19T19:30:42.651Z,98369.59
2022-11-19T19:33:16.513Z,98364.36
2022-11-19T19:35:50.021Z,98369.52
2022-11-19T19:38:25.367Z,98370.48
2022-11-19T19:40:57.627Z,98373.05
2022-11-19T19:43:32.573Z,98374.84
2022-11-19T19:46:10.228Z,98372.46
2022-11-19T19:48:43.378Z,98375.67
2022-11-19T19:51:17.275Z,98380.95
2022-11-19T19:53:51.264Z,98378.60
2022-11-19T19:56:25.200Z,98374.92
2022-11-19T19:58:59.138Z,98374.71
2022-11-19T20:01:33.548Z,98374.22
2022-11-19T20:04:07.426Z,98369.67
2022-11-19T20:06:42.448Z,98373.82
2022-11-19T20:09:15.096Z,98375.79
2022-11-19T20:11:47.943Z,98371.94
2022-11-19T20:14:20.187Z,98373.11
2022-11-19T20:16:53.086Z,98371.75
2022-11-19T20:19:26.569Z,98372.25
2022-11-19T20:21:59.787Z,98373.10
2022-11-19T20:24:34.479Z,98372.73
2022-11-19T20:27:09.652Z,98376.67
2022-11-19T20:29:43.136Z,98375.14
2022-11-19T20:32:15.555Z,98373.13
2022-11-19T20:34:48.945Z,98380.66
2022-11-19T20:37:21.987Z,98379.77
2022-11-19T20:39:55.222Z,98377.67
2022-11-19T20:42:47.386Z,98379.30
2022-11-19T20:45:20.233Z,98378.58
2022-11-19T20:47:54.704Z,98376.94
2022-11-19T20:50:26.959Z,98378.71
2022-11-19T20:53:00.016Z,98376.09
2022-11-19T20:55:53.125Z,98375.89
2022-11-19T20:58:31.484Z,98375.64
2022-11-19T21:01:07.511Z,98372.66
2022-11-19T21:03:45.132Z,98367.69
2022-11-19T21:06:17.990Z,98364.46
2022-11-19T21:08:53.182Z,98357.64
2022-11-19T21:11:27.847Z,98358.50
2022-11-19T21:14:00.394Z,98355.80
2022-11-19T21:16:36.860Z,98356.75
2022-11-19T21:19:14.223Z,98353.20
2022-11-19T21:21:48.913Z,98352.81
2022-11-19T21:24:22.150Z,98358.89
2022-11-19T21:26:54.642Z,98355.11
2022-11-19T21:29:29.855Z,98353.34
2022-11-19T21:32:02.626Z,98348.58
2022-11-19T21:34:35.212Z,98345.38
2022-11-19T21:37:09.193Z,98352.10
2022-11-19T21:39:42.453Z,98359.40
2022-11-19T21:42:15.253Z,98359.05
2022-11-19T21:44:47.105Z,98361.59
2022-11-19T21:47:23.573Z,98358.34
2022-11-19T21:50:00.989Z,98356.82
2022-11-19T21:52:34.221Z,98356.14
2022-11-19T21:55:08.794Z,98358.34
2022-11-19T21:57:42.435Z,98362.66
2022-11-19T22:00:18.346Z,98363.53
2022-11-19T22:02:51.579Z,98367.41
2022-11-19T22:05:24.852Z,98367.05
2022-11-19T22:07:59.193Z,98367.66
2022-11-19T22:10:31.788Z,98368.42
2022-11-19T22:13:05.772Z,98372.80
2022-11-19T22:15:39.069Z,98373.10
2022-11-19T22:18:12.976Z,98374.98
2022-11-19T22:20:46.604Z,98380.16
2022-11-19T22:23:24.194Z,98375.23
2022-11-19T22:26:00.010Z,98377.65
2022-11-19T22:28:33.901Z,98374.39
2022-11-19T22:31:06.808Z,98374.98
2022-11-19T22:33:40.289Z,98371.23
2022-11-19T22:36:14.010Z,98373.34
2022-11-19T22:38:45.804Z,98373.52
2022-11-19T22:41:19.613Z,98370.16
2022-11-19T22:43:52.405Z,98367.77
2022-11-19T22:46:25.952Z,98369.83
2022-11-19T22:48:59.520Z,98367.27
2022-11-19T22:51:32.577Z,98367.30
2022-11-19T22:54:11.824Z,98363.70
2022-11-19T22:56:44.143Z,98364.97
2022-11-19T22:59:17.727Z,98363.36
2022-11-19T23:01:52.587Z,98359.64
2022-11-19T23:04:26.182Z,98357.55
2022-11-19T23:07:03.159Z,98358.89
2022-11-19T23:09:35.265Z,98361.84
2022-11-19T23:12:37.838Z,98364.15
2022-11-19T23:15:11.504Z,98371.84
2022-11-19T23:17:46.640Z,98374.61
2022-11-19T23:20:19.350Z,98374.52
2022-11-19T23:22:51.364Z,98375.95
2022-11-19T23:25:24.393Z,98374.83
2022-11-19T23:27:57.783Z,98373.23
2022-11-19T23:30:32.354Z,98372.68
2022-11-19T23:33:07.068Z,98367.99
2022-11-19T23:35:42.528Z,98365.73
2022-11-19T23:38:15.738Z,98368.36
2022-11-19T23:40:48.333Z,98369.66
2022-11-19T23:43:21.893Z,98372.01
2022-11-19T23:45:58.455Z,98362.91
2022-11-19T23:48:31.678Z,98366.93
2022-11-19T23:51:09.964Z,98359.02
2022-11-19T23:53:44.601Z,98361.89
2022-11-19T23:56:18.316Z,98358.38
2022-11-19T23:58:52.307Z,98350.48
